createdAt,value
2019-04-25T00:00:09.915Z,76.50
2019-04-25T00:02:18.583Z,76.60
2019-04-25T00:04:22.859Z,76.50
2019-04-25T00:06:27.877Z,76.70
2019-04-25T00:08:32.090Z,76.90
2019-04-25T00:10:35.951Z,77.00
2019-04-25T00:12:40.129Z,76.90
2019-04-25T00:14:44.112Z,77.00
2019-04-25T00:16:48.224Z,77.00
2019-04-25T00:18:52.314Z,76.90
2019-04-25T00:21:01.274Z,77.10
2019-04-25T00:23:07.106Z,77.30
2019-04-25T00:25:24.623Z,77.20
2019-04-25T00:27:29.253Z,77.10
2019-04-25T00:29:33.111Z,77.20
2019-04-25T00:31:37.064Z,77.30
2019-04-25T00:33:43.663Z,77.50
2019-04-25T00:35:47.438Z,77.30
2019-04-25T00:37:52.538Z,77.50
2019-04-25T00:39:57.301Z,77.80
2019-04-25T00:42:02.325Z,77.70
2019-04-25T00:44:06.776Z,77.60
2019-04-25T00:46:11.434Z,77.80
2019-04-25T00:48:15.593Z,77.80
2019-04-25T00:50:19.583Z,77.70
2019-04-25T00:52:23.857Z,77.60
2019-04-25T00:54:27.905Z,77.50
2019-04-25T00:56:32.200Z,77.60
2019-04-25T00:58:47.109Z,77.80
2019-04-25T01:01:24.804Z,77.90
2019-04-25T01:03:31.714Z,78.00
2019-04-25T01:05:35.776Z,78.20
2019-04-25T01:07:39.800Z,78.50
2019-04-25T01:09:44.297Z,78.70
2019-04-25T01:11:48.423Z,78.90
2019-04-25T01:13:53.313Z,79.00
2019-04-25T01:15:57.464Z,79.10
2019-04-25T01:18:01.472Z,79.30
2019-04-25T01:20:09.087Z,79.30
2019-04-25T01:22:14.466Z,79.20
2019-04-25T01:24:18.923Z,79.40
2019-04-25T01:26:23.957Z,79.70
2019-04-25T01:28:28.208Z,79.70
2019-04-25T01:30:33.865Z,79.90
2019-04-25T01:32:39.137Z,80.00
2019-04-25T01:34:44.590Z,80.20
2019-04-25T01:36:50.757Z,80.10
2019-04-25T01:38:59.265Z,79.90
2019-04-25T01:41:04.860Z,80.10
2019-04-25T01:43:16.376Z,80.20
2019-04-25T01:45:21.934Z,80.40
2019-04-25T01:47:26.352Z,80.40
2019-04-25T01:49:30.192Z,80.40
2019-04-25T01:51:34.469Z,80.60
2019-04-25T01:53:38.375Z,80.80
2019-04-25T01:55:53.814Z,80.70
2019-04-25T01:57:49.289Z,82.10
2019-04-25T01:59:54.109Z,81.20
2019-04-25T02:01:58.924Z,81.00
2019-04-25T02:04:03.592Z,80.80
2019-04-25T02:06:08.425Z,81.10
2019-04-25T02:08:14.175Z,81.20
2019-04-25T02:10:18.321Z,81.50
2019-04-25T02:12:23.970Z,81.80
2019-04-25T02:14:27.975Z,82.00
2019-04-25T02:16:31.815Z,81.80
2019-04-25T02:18:35.787Z,81.80
2019-04-25T02:20:39.792Z,81.90
2019-04-25T02:22:44.174Z,82.10
2019-04-25T02:24:48.576Z,82.10
2019-04-25T02:26:54.776Z,82.10
2019-04-25T02:28:58.422Z,82.30
2019-04-25T02:31:05.825Z,82.30
2019-04-25T02:33:14.003Z,82.30
2019-04-25T02:35:17.476Z,82.60
2019-04-25T02:37:21.492Z,82.70
2019-04-25T02:39:26.307Z,82.80
2019-04-25T02:41:30.379Z,82.80
2019-04-25T02:43:35.638Z,82.90
2019-04-25T02:45:41.240Z,82.90
2019-04-25T02:48:05.711Z,83.10
2019-04-25T02:50:09.465Z,83.20
2019-04-25T02:52:21.115Z,83.50
2019-04-25T02:54:25.183Z,83.80
2019-04-25T02:56:34.423Z,83.90
2019-04-25T02:58:34.734Z,84.20
2019-04-25T03:00:51.831Z,84.50
2019-04-25T03:02:44.659Z,84.60
2019-04-25T03:04:48.938Z,84.30
2019-04-25T03:06:55.215Z,84.30
2019-04-25T03:09:00.095Z,84.30
2019-04-25T03:11:06.355Z,84.30
2019-04-25T03:13:11.871Z,84.60
2019-04-25T03:15:15.499Z,84.40
2019-04-25T03:17:19.814Z,84.20
2019-04-25T03:19:26.326Z,84.10
2019-04-25T03:21:35.441Z,84.00
2019-04-25T03:23:42.426Z,84.10
2019-04-25T03:25:45.061Z,84.40
2019-04-25T03:27:48.964Z,84.20
2019-04-25T03:29:54.182Z,84.40
2019-04-25T03:31:58.290Z,84.60
2019-04-25T03:34:07.099Z,84.60
2019-04-25T03:36:09.230Z,84.40
2019-04-25T03:38:14.497Z,84.40
2019-04-25T03:40:18.644Z,84.50
2019-04-25T03:42:23.983Z,84.20
2019-04-25T03:44:28.212Z,84.10
2019-04-25T03:46:33.390Z,84.40
2019-04-25T03:48:37.337Z,84.50
2019-04-25T03:50:41.243Z,84.70
2019-04-25T03:52:45.089Z,84.50
2019-04-25T03:54:49.092Z,84.50
2019-04-25T03:56:55.603Z,84.50
2019-04-25T03:58:59.027Z,84.50
2019-04-25T04:01:05.936Z,84.20
2019-04-25T04:03:09.073Z,84.30
2019-04-25T04:05:13.889Z,85.40
2019-04-25T04:07:19.204Z,86.10
2019-04-25T04:09:24.035Z,86.20
2019-04-25T04:11:28.037Z,87.10
2019-04-25T04:13:31.928Z,85.90
2019-04-25T04:15:35.811Z,85.80
2019-04-25T04:17:50.049Z,85.40
2019-04-25T04:20:01.327Z,85.40
2019-04-25T04:22:22.112Z,85.30
2019-04-25T04:24:27.565Z,85.50
2019-04-25T04:26:32.806Z,85.50
2019-04-25T04:28:37.132Z,85.40
2019-04-25T04:30:41.227Z,85.60
2019-04-25T04:32:45.833Z,85.70
2019-04-25T04:34:49.744Z,85.80
2019-04-25T04:36:53.774Z,85.70
2019-04-25T04:38:58.004Z,86.00
2019-04-25T04:41:02.071Z,85.90
2019-04-25T04:43:06.028Z,85.80
2019-04-25T04:45:10.394Z,85.70
2019-04-25T04:47:15.380Z,85.70
2019-04-25T04:49:23.836Z,86.70
2019-04-25T04:51:27.823Z,85.80
2019-04-25T04:53:33.830Z,85.80
2019-04-25T04:55:37.293Z,85.70
2019-04-25T04:57:41.289Z,85.90
2019-04-25T04:59:45.308Z,85.90
2019-04-25T05:01:59.993Z,85.80
2019-04-25T05:04:08.479Z,85.60
2019-04-25T05:06:29.132Z,85.60
2019-04-25T05:08:34.590Z,85.50
2019-04-25T05:10:38.729Z,85.20
2019-04-25T05:12:43.780Z,85.30
2019-04-25T05:14:47.873Z,85.40
2019-04-25T05:16:53.228Z,85.50
2019-04-25T05:18:57.320Z,85.30
2019-04-25T05:21:01.223Z,85.30
2019-04-25T05:23:05.232Z,85.00
2019-04-25T05:25:09.241Z,84.80
2019-04-25T05:27:15.409Z,84.90
2019-04-25T05:29:21.317Z,84.80
2019-04-25T05:31:25.857Z,84.40
2019-04-25T05:33:29.727Z,84.50
2019-04-25T05:35:33.579Z,84.30
2019-04-25T05:37:37.447Z,84.10
2019-04-25T05:39:41.321Z,84.40
2019-04-25T05:41:46.837Z,84.30
2019-04-25T05:43:50.980Z,84.00
2019-04-25T05:45:55.153Z,84.30
2019-04-25T05:47:59.161Z,84.20
2019-04-25T05:50:04.173Z,83.90
2019-04-25T05:52:11.682Z,83.70
2019-04-25T05:54:16.494Z,83.30
2019-04-25T05:56:20.619Z,83.20
2019-04-25T05:58:25.794Z,83.00
2019-04-25T06:00:30.169Z,82.80
2019-04-25T06:02:34.145Z,82.70
2019-04-25T06:04:38.057Z,82.90
2019-04-25T06:06:41.966Z,82.60
2019-04-25T06:08:47.635Z,83.10
2019-04-25T06:11:05.480Z,82.40
2019-04-25T06:13:28.515Z,82.10
2019-04-25T06:15:33.271Z,81.40
2019-04-25T06:17:43.425Z,81.40
2019-04-25T06:19:53.309Z,81.00
2019-04-25T06:21:57.692Z,81.50
2019-04-25T06:24:21.230Z,81.30
2019-04-25T06:26:34.054Z,80.90
2019-04-25T06:28:33.450Z,80.90
2019-04-25T06:30:37.198Z,80.40
2019-04-25T06:32:41.143Z,80.60
2019-04-25T06:34:45.165Z,80.60
2019-04-25T06:36:49.060Z,80.00
2019-04-25T06:38:54.188Z,80.00
2019-04-25T06:40:58.303Z,79.80
2019-04-25T06:43:03.344Z,79.40
2019-04-25T06:45:14.150Z,78.60
2019-04-25T06:47:20.234Z,77.60
2019-04-25T06:49:27.722Z,77.40
2019-04-25T06:51:49.391Z,77.60
2019-04-25T06:53:53.507Z,77.20
2019-04-25T06:55:57.360Z,77.00
2019-04-25T06:58:11.417Z,76.80
2019-04-25T07:00:10.235Z,75.40
2019-04-25T07:02:14.161Z,74.40
2019-04-25T07:04:18.002Z,73.00
2019-04-25T07:06:23.301Z,72.80
2019-04-25T07:08:27.784Z,72.60
2019-04-25T07:10:33.564Z,72.20
2019-04-25T07:12:37.373Z,71.40
2019-04-25T07:14:41.848Z,72.10
2019-04-25T07:16:45.978Z,71.90
2019-04-25T07:18:49.967Z,71.40
2019-04-25T07:20:53.872Z,70.40
2019-04-25T07:22:57.883Z,69.20
2019-04-25T07:25:03.555Z,68.80
2019-04-25T07:27:25.516Z,67.50
2019-04-25T07:29:40.970Z,67.00
2019-04-25T07:32:06.005Z,65.80
2019-04-25T07:34:14.545Z,65.60
2019-04-25T07:36:18.576Z,66.20
2019-04-25T07:38:23.752Z,64.50
2019-04-25T07:40:27.741Z,61.70
2019-04-25T07:42:31.837Z,61.60
2019-04-25T07:44:49.359Z,60.50
2019-04-25T07:46:43.196Z,59.60
2019-04-25T07:48:47.145Z,59.40
2019-04-25T07:50:51.019Z,58.70
2019-04-25T07:52:54.965Z,56.90
2019-04-25T07:54:58.884Z,56.70
2019-04-25T07:57:03.640Z,55.60
2019-04-25T07:59:08.152Z,55.50
2019-04-25T08:01:14.086Z,55.60
2019-04-25T08:03:18.083Z,56.00
2019-04-25T08:05:21.908Z,53.90
2019-04-25T08:07:26.060Z,53.60
2019-04-25T08:09:30.004Z,52.70
2019-04-25T08:11:34.803Z,52.20
2019-04-25T08:13:49.799Z,52.00
2019-04-25T08:15:55.290Z,51.50
2019-04-25T08:18:00.745Z,52.30
2019-04-25T08:20:07.379Z,51.50
2019-04-25T08:22:11.452Z,52.30
2019-04-25T08:24:15.698Z,51.10
2019-04-25T08:26:19.575Z,51.20
2019-04-25T08:28:23.746Z,50.70
2019-04-25T08:30:27.623Z,50.40
2019-04-25T08:32:31.506Z,51.10
2019-04-25T08:34:36.302Z,50.60
2019-04-25T08:36:41.498Z,50.70
2019-04-25T08:38:45.415Z,51.60
2019-04-25T08:40:49.230Z,51.20
2019-04-25T08:42:53.752Z,51.00
2019-04-25T08:44:57.957Z,51.50
2019-04-25T08:47:01.745Z,51.40
2019-04-25T08:49:25.998Z,52.00
2019-04-25T08:51:32.182Z,51.10
2019-04-25T08:53:38.950Z,51.80
2019-04-25T08:55:47.524Z,50.90
2019-04-25T08:57:53.968Z,50.60
2019-04-25T09:00:08.703Z,50.90
2019-04-25T09:02:14.107Z,50.30
2019-04-25T09:04:19.636Z,50.40
2019-04-25T09:06:24.391Z,50.00
2019-04-25T09:08:35.461Z,50.50
2019-04-25T09:10:39.964Z,50.60
2019-04-25T09:12:45.272Z,50.20
2019-04-25T09:14:49.448Z,50.20
2019-04-25T09:16:53.480Z,49.60
2019-04-25T09:18:57.576Z,49.60
2019-04-25T09:21:01.505Z,48.60
2019-04-25T09:23:05.790Z,49.10
2019-04-25T09:25:11.680Z,49.00
2019-04-25T09:27:15.490Z,49.10
2019-04-25T09:29:20.133Z,49.20
2019-04-25T09:31:24.208Z,49.20
2019-04-25T09:33:28.383Z,49.80
2019-04-25T09:35:33.479Z,49.00
2019-04-25T09:37:38.522Z,48.90
2019-04-25T09:39:47.418Z,49.50
2019-04-25T09:41:51.438Z,48.30
2019-04-25T09:46:10.592Z,47.60
2019-04-25T09:48:37.470Z,47.70
2019-04-25T09:50:46.374Z,47.60
2019-04-25T09:52:50.284Z,48.00
2019-04-25T09:55:01.400Z,48.70
2019-04-25T09:57:24.663Z,46.90
2019-04-25T09:59:30.106Z,46.70
2019-04-25T10:01:34.077Z,45.90
2019-04-25T10:03:38.646Z,46.40
2019-04-25T10:05:43.020Z,46.90
2019-04-25T10:07:48.889Z,44.80
2019-04-25T10:09:54.470Z,45.40
2019-04-25T10:11:58.154Z,45.50
2019-04-25T10:14:26.682Z,46.40
2019-04-25T10:16:30.544Z,44.30
2019-04-25T10:18:37.018Z,45.00
2019-04-25T10:20:41.867Z,45.80
2019-04-25T10:22:46.568Z,43.20
2019-04-25T10:24:58.893Z,42.20
2019-04-25T10:26:56.163Z,42.90
2019-04-25T10:29:00.032Z,43.40
2019-04-25T10:31:04.178Z,43.50
2019-04-25T10:33:08.115Z,42.60
2019-04-25T10:35:14.642Z,43.60
2019-04-25T10:37:17.436Z,42.90
2019-04-25T10:39:21.445Z,42.80
2019-04-25T10:41:25.397Z,43.20
2019-04-25T10:43:29.250Z,42.10
2019-04-25T10:45:34.060Z,41.80
2019-04-25T10:47:38.219Z,43.30
2019-04-25T10:49:42.584Z,42.70
2019-04-25T10:51:46.696Z,41.60
2019-04-25T10:53:51.310Z,42.90
2019-04-25T10:55:55.297Z,42.20
2019-04-25T10:57:59.252Z,42.00
2019-04-25T11:00:09.057Z,42.10
2019-04-25T11:02:11.363Z,40.90
2019-04-25T11:04:26.042Z,40.90
2019-04-25T11:06:36.791Z,40.90
2019-04-25T11:08:41.697Z,40.40
2019-04-25T11:10:47.470Z,40.40
2019-04-25T11:12:51.262Z,40.50
2019-04-25T11:14:56.260Z,41.30
2019-04-25T11:17:01.886Z,40.50
2019-04-25T11:19:05.845Z,39.10
2019-04-25T11:21:09.723Z,39.10
2019-04-25T11:23:13.993Z,38.90
2019-04-25T11:25:17.977Z,39.20
2019-04-25T11:27:23.765Z,39.20
2019-04-25T11:29:28.990Z,39.00
2019-04-25T11:31:34.471Z,38.20
2019-04-25T11:33:38.306Z,38.60
2019-04-25T11:35:42.193Z,36.70
2019-04-25T11:37:46.112Z,37.00
2019-04-25T11:40:05.310Z,35.80
2019-04-25T11:42:10.177Z,35.10
2019-04-25T11:44:14.194Z,35.00
2019-04-25T11:46:18.314Z,35.60
2019-04-25T11:48:23.748Z,34.40
2019-04-25T11:50:28.744Z,33.60
2019-04-25T11:52:33.624Z,34.30
2019-04-25T11:54:37.696Z,33.00
2019-04-25T11:56:42.655Z,32.30
2019-04-25T11:58:48.097Z,32.60
2019-04-25T12:00:54.133Z,32.90
2019-04-25T12:02:58.347Z,32.20
2019-04-25T12:05:02.369Z,33.00
2019-04-25T12:07:07.167Z,32.40
2019-04-25T12:09:13.765Z,31.90
2019-04-25T12:11:17.581Z,33.40
2019-04-25T12:13:21.508Z,34.00
2019-04-25T12:15:25.474Z,34.20
2019-04-25T12:17:31.176Z,32.40
2019-04-25T12:19:37.818Z,32.40
2019-04-25T12:21:40.821Z,31.80
2019-04-25T12:23:46.363Z,31.60
2019-04-25T12:25:52.016Z,31.20
2019-04-25T12:27:56.718Z,32.60
2019-04-25T12:30:00.609Z,31.60
2019-04-25T12:32:05.113Z,31.10
2019-04-25T12:34:09.005Z,31.30
2019-04-25T12:36:13.603Z,30.90
2019-04-25T12:38:20.282Z,30.00
2019-04-25T12:40:24.227Z,30.10
2019-04-25T12:42:28.250Z,31.10
2019-04-25T12:44:51.759Z,32.30
2019-04-25T12:46:57.203Z,33.40
2019-04-25T12:49:01.399Z,32.80
2019-04-25T12:51:05.255Z,31.90
2019-04-25T12:53:09.219Z,30.80
2019-04-25T12:55:14.233Z,30.00
2019-04-25T12:57:18.467Z,30.90
2019-04-25T12:59:22.304Z,29.40
2019-04-25T13:01:26.178Z,29.40
2019-04-25T13:03:30.162Z,28.30
2019-04-25T13:05:34.266Z,28.10
2019-04-25T13:07:38.515Z,28.10
2019-04-25T13:09:42.379Z,28.30
2019-04-25T13:11:46.244Z,27.80
2019-04-25T13:13:52.464Z,27.50
2019-04-25T13:15:58.864Z,27.90
2019-04-25T13:18:03.552Z,27.70
2019-04-25T13:20:07.855Z,28.00
2019-04-25T13:22:12.319Z,27.80
2019-04-25T13:24:16.285Z,28.20
2019-04-25T13:26:21.739Z,28.40
2019-04-25T13:28:27.492Z,28.40
2019-04-25T13:30:59.620Z,27.80
2019-04-25T13:33:02.333Z,27.90
2019-04-25T13:35:20.155Z,29.00
2019-04-25T13:37:24.238Z,29.20
2019-04-25T13:39:28.465Z,28.90
2019-04-25T13:41:32.473Z,29.60
2019-04-25T13:43:36.794Z,29.00
2019-04-25T13:45:40.798Z,29.60
2019-04-25T13:47:44.805Z,29.80
2019-04-25T13:49:50.347Z,29.60
2019-04-25T13:51:54.244Z,29.90
2019-04-25T13:53:58.112Z,30.00
2019-04-25T13:56:03.464Z,30.50
2019-04-25T13:58:08.456Z,30.90
2019-04-25T14:00:14.136Z,30.70
2019-04-25T14:02:18.544Z,31.20
2019-04-25T14:04:25.066Z,32.10
2019-04-25T14:06:29.128Z,31.90
2019-04-25T14:08:33.535Z,31.80
2019-04-25T14:10:37.611Z,31.80
2019-04-25T14:12:47.527Z,31.40
2019-04-25T14:14:51.368Z,31.40
2019-04-25T14:16:56.987Z,32.10
2019-04-25T14:19:25.608Z,31.60
2019-04-25T14:21:29.298Z,31.40
2019-04-25T14:23:34.538Z,31.60
2019-04-25T14:25:44.137Z,31.30
2019-04-25T14:27:48.461Z,31.60
2019-04-25T14:29:53.558Z,30.40
2019-04-25T14:31:57.643Z,31.40
2019-04-25T14:34:03.325Z,31.60
2019-04-25T14:36:10.029Z,32.20
2019-04-25T14:38:13.963Z,32.10
2019-04-25T14:40:18.140Z,32.20
2019-04-25T14:42:23.084Z,32.30
2019-04-25T14:44:27.034Z,31.40
2019-04-25T14:46:32.148Z,31.40
2019-04-25T14:48:36.750Z,32.00
2019-04-25T14:50:40.625Z,31.30
2019-04-25T14:52:44.502Z,31.40
2019-04-25T14:57:18.287Z,30.80
2019-04-25T14:59:23.596Z,31.10
2019-04-25T15:01:28.070Z,31.60
2019-04-25T15:03:32.182Z,31.00
2019-04-25T15:05:36.119Z,30.50
2019-04-25T15:07:40.691Z,31.00
2019-04-25T15:09:44.688Z,30.00
2019-04-25T15:11:48.570Z,30.40
2019-04-25T15:13:52.615Z,30.90
2019-04-25T15:15:56.787Z,30.30
2019-04-25T15:18:00.996Z,30.90
2019-04-25T15:20:06.790Z,30.80
2019-04-25T15:22:10.794Z,31.60
2019-04-25T15:24:14.760Z,31.70
2019-04-25T15:26:18.767Z,31.90
2019-04-25T15:28:24.394Z,32.10
2019-04-25T15:33:26.398Z,32.60
2019-04-25T15:35:50.343Z,32.80
2019-04-25T15:37:58.271Z,32.60
2019-04-25T15:40:06.708Z,32.20
2019-04-25T15:42:28.506Z,31.90
2019-04-25T15:44:46.341Z,32.10
2019-04-25T15:46:51.884Z,31.90
2019-04-25T15:48:55.789Z,32.00
2019-04-25T15:50:59.698Z,32.10
2019-04-25T15:53:04.210Z,32.20
2019-04-25T15:55:08.219Z,32.60
2019-04-25T15:57:12.571Z,32.80
2019-04-25T15:59:16.542Z,33.20
2019-04-25T16:01:20.456Z,33.10
2019-04-25T16:03:24.605Z,33.30
2019-04-25T16:05:29.897Z,33.70
2019-04-25T16:07:33.904Z,34.10
2019-04-25T16:09:38.013Z,34.30
2019-04-25T16:11:42.020Z,34.50
2019-04-25T16:13:45.907Z,34.50
2019-04-25T16:15:57.175Z,34.60
2019-04-25T16:18:01.021Z,34.90
2019-04-25T16:20:05.821Z,35.50
2019-04-25T16:22:09.696Z,35.30
2019-04-25T16:24:13.752Z,35.90
2019-04-25T16:26:17.838Z,36.50
2019-04-25T16:28:21.969Z,37.30
2019-04-25T16:30:28.278Z,38.50
2019-04-25T16:32:32.501Z,38.80
2019-04-25T16:34:36.397Z,38.30
2019-04-25T16:36:40.503Z,37.90
2019-04-25T16:38:44.414Z,37.70
2019-04-25T16:40:48.615Z,38.10
2019-04-25T16:42:53.094Z,38.20
2019-04-25T16:44:57.076Z,38.30
2019-04-25T16:47:01.312Z,38.10
2019-04-25T16:49:05.320Z,39.00
2019-04-25T16:51:09.232Z,39.00
2019-04-25T16:53:13.478Z,39.30
2019-04-25T16:55:17.636Z,39.20
2019-04-25T16:57:21.526Z,39.70
2019-04-25T16:59:25.563Z,40.40
2019-04-25T17:01:30.258Z,39.80
2019-04-25T17:03:35.341Z,40.30
2019-04-25T17:05:40.353Z,40.60
2019-04-25T17:07:44.459Z,40.80
2019-04-25T17:09:48.473Z,40.70
2019-04-25T17:11:52.578Z,40.60
2019-04-25T17:13:58.122Z,40.40
2019-04-25T17:16:03.546Z,40.70
2019-04-25T17:18:09.107Z,41.00
2019-04-25T17:20:23.561Z,41.20
2019-04-25T17:22:27.464Z,41.70
2019-04-25T17:24:34.657Z,42.10
2019-04-25T17:26:39.422Z,42.20
2019-04-25T17:28:48.539Z,42.30
2019-04-25T17:31:00.190Z,43.20
2019-04-25T17:33:08.392Z,43.00
2019-04-25T17:35:26.633Z,43.30
2019-04-25T17:37:32.084Z,43.30
2019-04-25T17:39:37.548Z,43.50
2019-04-25T17:41:41.412Z,43.80
2019-04-25T17:43:45.313Z,43.80
2019-04-25T17:45:49.163Z,44.20
2019-04-25T17:47:55.001Z,44.40
2019-04-25T17:49:58.583Z,44.40
2019-04-25T17:52:02.476Z,45.00
2019-04-25T17:54:06.700Z,45.10
2019-04-25T17:56:10.706Z,45.30
2019-04-25T17:58:16.247Z,45.50
2019-04-25T18:00:28.292Z,45.50
2019-04-25T18:02:33.523Z,47.10
2019-04-25T18:04:38.298Z,47.30
2019-04-25T18:06:42.183Z,47.40
2019-04-25T18:08:46.121Z,47.10
2019-04-25T18:10:50.139Z,47.10
2019-04-25T18:12:54.028Z,46.90
2019-04-25T18:14:59.439Z,47.30
2019-04-25T18:17:03.337Z,47.40
2019-04-25T18:19:11.857Z,47.50
2019-04-25T18:21:15.745Z,47.50
2019-04-25T18:23:21.338Z,47.60
2019-04-25T18:25:38.786Z,47.80
2019-04-25T18:27:44.335Z,48.00
2019-04-25T18:29:48.171Z,48.30
2019-04-25T18:31:52.425Z,48.50
2019-04-25T18:33:57.863Z,48.70
2019-04-25T18:36:09.417Z,48.80
2019-04-25T18:38:21.124Z,49.30
2019-04-25T18:40:29.530Z,49.60
2019-04-25T18:42:41.951Z,50.10
2019-04-25T18:44:46.571Z,50.40
2019-04-25T18:46:50.541Z,50.50
2019-04-25T18:48:54.514Z,50.70
2019-04-25T18:50:58.396Z,51.00
2019-04-25T18:53:06.515Z,51.30
2019-04-25T18:55:23.916Z,51.60
2019-04-25T18:57:29.437Z,51.90
2019-04-25T18:59:44.015Z,51.90
2019-04-25T19:02:01.306Z,52.20
2019-04-25T19:04:16.557Z,52.30
2019-04-25T19:06:22.354Z,52.50
2019-04-25T19:08:26.231Z,52.70
2019-04-25T19:10:30.201Z,52.90
2019-04-25T19:12:34.284Z,52.90
2019-04-25T19:14:39.904Z,51.60
2019-04-25T19:16:43.835Z,51.00
2019-04-25T19:18:48.047Z,51.00
2019-04-25T19:20:52.394Z,51.60
2019-04-25T19:22:56.482Z,51.50
2019-04-25T19:25:00.351Z,51.50
2019-04-25T19:27:04.273Z,50.80
2019-04-25T19:29:08.152Z,50.80
2019-04-25T19:31:12.012Z,50.80
2019-04-25T19:33:15.896Z,50.90
2019-04-25T19:35:19.800Z,50.80
2019-04-25T19:37:23.700Z,51.50
2019-04-25T19:39:29.195Z,51.70
2019-04-25T19:41:51.830Z,52.00
2019-04-25T19:44:03.352Z,52.30
2019-04-25T19:46:07.355Z,52.80
2019-04-25T19:48:11.206Z,53.20
2019-04-25T19:50:15.095Z,53.20
2019-04-25T19:52:18.984Z,52.80
2019-04-25T19:54:22.836Z,52.50
2019-04-25T19:56:26.796Z,53.00
2019-04-25T19:58:30.807Z,53.80
2019-04-25T20:00:36.964Z,54.40
2019-04-25T20:02:46.670Z,54.70
2019-04-25T20:04:53.056Z,54.90
2019-04-25T20:07:16.563Z,54.90
2019-04-25T20:09:37.114Z,55.60
2019-04-25T20:11:45.327Z,55.60
2019-04-25T20:13:49.574Z,55.30
2019-04-25T20:15:53.872Z,55.50
2019-04-25T20:17:59.039Z,55.60
2019-04-25T20:20:03.314Z,55.80
2019-04-25T20:22:07.242Z,56.00
2019-04-25T20:24:11.123Z,56.40
2019-04-25T20:26:15.154Z,57.20
2019-04-25T20:28:19.447Z,57.50
2019-04-25T20:30:23.798Z,57.50
2019-04-25T20:32:27.799Z,57.40
2019-04-25T20:34:31.785Z,57.20
2019-04-25T20:36:35.570Z,57.50
2019-04-25T20:38:39.490Z,57.60
2019-04-25T20:40:46.323Z,57.50
2019-04-25T20:42:51.765Z,57.90
2019-04-25T20:44:56.061Z,58.10
2019-04-25T20:47:00.269Z,58.30
2019-04-25T20:49:04.515Z,58.80
2019-04-25T20:51:08.424Z,58.90
2019-04-25T20:53:12.543Z,59.00
2019-04-25T20:55:16.821Z,59.40
2019-04-25T20:57:20.842Z,59.50
2019-04-25T20:59:28.163Z,59.60
2019-04-25T21:01:32.273Z,60.80
2019-04-25T21:03:36.475Z,59.90
2019-04-25T21:05:41.302Z,59.90
2019-04-25T21:07:45.631Z,59.90
2019-04-25T21:09:51.182Z,59.90
2019-04-25T21:11:55.795Z,60.70
2019-04-25T21:14:01.745Z,60.90
2019-04-25T21:16:23.818Z,61.30
2019-04-25T21:18:29.381Z,62.10
2019-04-25T21:20:33.634Z,62.80
2019-04-25T21:22:38.069Z,63.10
2019-04-25T21:24:42.165Z,63.10
2019-04-25T21:26:46.462Z,63.10
2019-04-25T21:28:51.000Z,63.20
2019-04-25T21:30:55.649Z,63.00
2019-04-25T21:33:00.341Z,63.20
2019-04-25T21:35:06.252Z,63.30
2019-04-25T21:37:10.737Z,63.60
2019-04-25T21:39:17.312Z,63.90
2019-04-25T21:41:39.822Z,64.10
2019-04-25T21:43:45.873Z,64.30
2019-04-25T21:45:51.892Z,64.40
2019-04-25T21:47:56.900Z,64.60
2019-04-25T21:50:01.418Z,64.80
2019-04-25T21:52:05.775Z,64.90
2019-04-25T21:54:10.251Z,64.90
2019-04-25T21:56:16.598Z,65.20
2019-04-25T21:58:20.690Z,65.10
2019-04-25T22:00:45.283Z,65.40
2019-04-25T22:02:50.008Z,65.20
2019-04-25T22:04:54.403Z,65.10
2019-04-25T22:07:00.833Z,65.10
2019-04-25T22:09:12.723Z,65.20
2019-04-25T22:11:16.895Z,65.10
2019-04-25T22:13:21.451Z,65.10
2019-04-25T22:15:27.968Z,65.30
2019-04-25T22:17:32.613Z,65.20
2019-04-25T22:19:37.224Z,65.30
2019-04-25T22:21:41.844Z,65.40
2019-04-25T22:23:47.346Z,65.40
2019-04-25T22:25:51.641Z,65.50
2019-04-25T22:27:56.545Z,65.40
2019-04-25T22:30:01.412Z,65.20
2019-04-25T22:32:19.396Z,65.60
2019-04-25T22:34:31.631Z,66.30
2019-04-25T22:36:35.907Z,66.40
2019-04-25T22:38:40.540Z,66.50
2019-04-25T22:40:44.980Z,67.10
2019-04-25T22:42:49.395Z,67.50
2019-04-25T22:44:53.409Z,67.50
2019-04-25T22:46:57.404Z,67.70
2019-04-25T22:49:01.374Z,68.20
2019-04-25T22:51:05.845Z,68.20
2019-04-25T22:53:21.498Z,68.10
2019-04-25T22:55:15.407Z,68.40
2019-04-25T22:57:19.575Z,69.40
2019-04-25T22:59:23.680Z,68.50
2019-04-25T23:01:38.334Z,68.60
2019-04-25T23:03:46.480Z,68.60
2019-04-25T23:05:52.069Z,68.80
2019-04-25T23:07:56.354Z,68.80
2019-04-25T23:10:01.946Z,69.00
2019-04-25T23:12:06.886Z,68.80
2019-04-25T23:14:11.287Z,69.10
2019-04-25T23:16:15.138Z,69.30
2019-04-25T23:18:19.202Z,69.40
2019-04-25T23:20:23.107Z,69.50
2019-04-25T23:22:27.063Z,69.30
2019-04-25T23:24:32.846Z,69.80
2019-04-25T23:26:38.824Z,70.60
2019-04-25T23:28:44.362Z,70.10
2019-04-25T23:30:59.160Z,70.20
2019-04-25T23:33:04.066Z,70.00
2019-04-25T23:35:24.356Z,70.20
2019-04-25T23:37:15.197Z,70.50
2019-04-25T23:39:19.449Z,70.40
2019-04-25T23:41:23.357Z,70.30
2019-04-25T23:43:27.260Z,70.60
2019-04-25T23:45:31.282Z,70.70
2019-04-25T23:47:35.274Z,70.90
2019-04-25T23:49:39.692Z,71.10
2019-04-25T23:51:44.212Z,71.10
2019-04-25T23:53:48.119Z,71.10
2019-04-25T23:55:52.023Z,71.10
2019-04-25T23:57:55.916Z,72.00
2019-04-25T23:59:59.898Z,72.10
